sensor_id;sensor_type;location;lat;lon;timestamp;temperature;humidity
16158;DHT22;8184;60.256;18.694;2023-08-30T00:01:25;15.70;99.90
16158;DHT22;8184;60.256;18.694;2023-08-30T00:03:53;15.60;99.90
16158;DHT22;8184;60.256;18.694;2023-08-30T00:06:21;15.60;99.90
16158;DHT22;8184;60.256;18.694;2023-08-30T00:08:49;15.60;99.90
16158;DHT22;8184;60.256;18.694;2023-08-30T00:11:18;15.60;99.90
16158;DHT22;8184;60.256;18.694;2023-08-30T00:13:46;15.60;99.90
16158;DHT22;8184;60.256;18.694;2023-08-30T00:16:16;15.50;99.90
16158;DHT22;8184;60.256;18.694;2023-08-30T00:18:44;15.50;99.90
16158;DHT22;8184;60.256;18.694;2023-08-30T00:21:13;15.50;99.90
16158;DHT22;8184;60.256;18.694;2023-08-30T00:23:42;15.50;99.90
16158;DHT22;8184;60.256;18.694;2023-08-30T00:26:10;15.60;99.90
16158;DHT22;8184;60.256;18.694;2023-08-30T00:28:38;15.60;99.90
16158;DHT22;8184;60.256;18.694;2023-08-30T00:31:06;15.50;99.90
16158;DHT22;8184;60.256;18.694;2023-08-30T00:33:38;15.50;99.90
16158;DHT22;8184;60.256;18.694;2023-08-30T00:36:06;15.50;99.90
16158;DHT22;8184;60.256;18.694;2023-08-30T00:38:35;15.40;99.90
16158;DHT22;8184;60.256;18.694;2023-08-30T00:41:03;15.50;99.90
16158;DHT22;8184;60.256;18.694;2023-08-30T00:43:33;15.50;99.90
16158;DHT22;8184;60.256;18.694;2023-08-30T00:46:01;15.40;99.90
16158;DHT22;8184;60.256;18.694;2023-08-30T00:48:31;15.40;99.90
16158;DHT22;8184;60.256;18.694;2023-08-30T00:51:00;15.40;99.90
16158;DHT22;8184;60.256;18.694;2023-08-30T00:53:29;15.40;99.90
16158;DHT22;8184;60.256;18.694;2023-08-30T00:55:57;15.30;99.90
16158;DHT22;8184;60.256;18.694;2023-08-30T00:58:25;15.30;99.90
16158;DHT22;8184;60.256;18.694;2023-08-30T01:00:54;15.30;99.90
16158;DHT22;8184;60.256;18.694;2023-08-30T01:03:22;15.30;99.90
16158;DHT22;8184;60.256;18.694;2023-08-30T01:05:51;15.30;99.90
16158;DHT22;8184;60.256;18.694;2023-08-30T01:08:20;15.30;99.90
16158;DHT22;8184;60.256;18.694;2023-08-30T01:10:51;15.30;99.90
16158;DHT22;8184;60.256;18.694;2023-08-30T01:13:20;15.30;99.90
16158;DHT22;8184;60.256;18.694;2023-08-30T01:15:49;15.20;99.90
16158;DHT22;8184;60.256;18.694;2023-08-30T01:18:17;15.20;99.90
16158;DHT22;8184;60.256;18.694;2023-08-30T01:20:46;15.20;99.90
16158;DHT22;8184;60.256;18.694;2023-08-30T01:23:18;15.20;99.90
16158;DHT22;8184;60.256;18.694;2023-08-30T01:25:51;15.20;99.90
16158;DHT22;8184;60.256;18.694;2023-08-30T01:28:26;15.20;99.90
16158;DHT22;8184;60.256;18.694;2023-08-30T01:30:54;15.20;99.90
16158;DHT22;8184;60.256;18.694;2023-08-30T01:33:24;15.20;99.90
16158;DHT22;8184;60.256;18.694;2023-08-30T01:35:54;15.10;99.90
16158;DHT22;8184;60.256;18.694;2023-08-30T01:38:23;15.20;99.90
16158;DHT22;8184;60.256;18.694;2023-08-30T01:40:51;15.10;99.90
16158;DHT22;8184;60.256;18.694;2023-08-30T01:43:26;15.10;99.90
16158;DHT22;8184;60.256;18.694;2023-08-30T01:45:57;15.10;99.90
16158;DHT22;8184;60.256;18.694;2023-08-30T01:48:26;15.10;99.90
16158;DHT22;8184;60.256;18.694;2023-08-30T01:50:54;15.10;99.90
16158;DHT22;8184;60.256;18.694;2023-08-30T01:53:26;15.10;99.90
16158;DHT22;8184;60.256;18.694;2023-08-30T01:55:55;15.10;99.90
16158;DHT22;8184;60.256;18.694;2023-08-30T01:58:23;15.10;99.90
16158;DHT22;8184;60.256;18.694;2023-08-30T02:00:52;15.10;99.90
16158;DHT22;8184;60.256;18.694;2023-08-30T02:03:20;15.00;99.90
16158;DHT22;8184;60.256;18.694;2023-08-30T02:05:52;15.00;99.90
16158;DHT22;8184;60.256;18.694;2023-08-30T02:08:25;15.00;99.90
16158;DHT22;8184;60.256;18.694;2023-08-30T02:10:55;15.00;99.90
16158;DHT22;8184;60.256;18.694;2023-08-30T02:13:25;15.00;99.90
16158;DHT22;8184;60.256;18.694;2023-08-30T02:15:56;15.00;99.90
16158;DHT22;8184;60.256;18.694;2023-08-30T02:18:27;15.00;99.90
16158;DHT22;8184;60.256;18.694;2023-08-30T02:20:58;15.10;99.90
16158;DHT22;8184;60.256;18.694;2023-08-30T02:23:30;15.00;99.90
16158;DHT22;8184;60.256;18.694;2023-08-30T02:25:58;15.00;99.90
16158;DHT22;8184;60.256;18.694;2023-08-30T02:28:26;15.00;99.90
16158;DHT22;8184;60.256;18.694;2023-08-30T02:30:56;15.00;99.90
16158;DHT22;8184;60.256;18.694;2023-08-30T02:33:24;15.00;99.90
16158;DHT22;8184;60.256;18.694;2023-08-30T02:35:52;14.90;99.90
16158;DHT22;8184;60.256;18.694;2023-08-30T02:38:21;14.90;99.90
16158;DHT22;8184;60.256;18.694;2023-08-30T02:40:49;14.90;99.90
16158;DHT22;8184;60.256;18.694;2023-08-30T02:43:17;14.90;99.90
16158;DHT22;8184;60.256;18.694;2023-08-30T02:45:51;15.00;99.90
16158;DHT22;8184;60.256;18.694;2023-08-30T02:48:21;14.90;99.90
16158;DHT22;8184;60.256;18.694;2023-08-30T02:50:49;14.90;99.90
16158;DHT22;8184;60.256;18.694;2023-08-30T02:53:17;15.00;99.90
16158;DHT22;8184;60.256;18.694;2023-08-30T02:55:46;14.90;99.90
16158;DHT22;8184;60.256;18.694;2023-08-30T02:58:14;14.80;99.90
16158;DHT22;8184;60.256;18.694;2023-08-30T03:00:42;14.90;99.90
16158;DHT22;8184;60.256;18.694;2023-08-30T03:03:12;14.90;99.90
16158;DHT22;8184;60.256;18.694;2023-08-30T03:05:41;15.00;99.90
16158;DHT22;8184;60.256;18.694;2023-08-30T03:08:09;15.00;99.90
16158;DHT22;8184;60.256;18.694;2023-08-30T03:10:38;15.10;99.90
16158;DHT22;8184;60.256;18.694;2023-08-30T03:13:06;15.10;99.90
16158;DHT22;8184;60.256;18.694;2023-08-30T03:15:34;15.10;99.90
16158;DHT22;8184;60.256;18.694;2023-08-30T03:18:03;15.10;99.90
16158;DHT22;8184;60.256;18.694;2023-08-30T03:20:31;15.10;99.90
16158;DHT22;8184;60.256;18.694;2023-08-30T03:23:00;15.00;99.90
16158;DHT22;8184;60.256;18.694;2023-08-30T03:25:29;15.00;99.90
16158;DHT22;8184;60.256;18.694;2023-08-30T03:27:57;15.00;99.90
16158;DHT22;8184;60.256;18.694;2023-08-30T03:30:25;15.00;99.90
16158;DHT22;8184;60.256;18.694;2023-08-30T03:32:54;15.10;99.90
16158;DHT22;8184;60.256;18.694;2023-08-30T03:35:22;15.00;99.90
16158;DHT22;8184;60.256;18.694;2023-08-30T03:37:50;15.00;99.90
16158;DHT22;8184;60.256;18.694;2023-08-30T03:40:20;15.00;99.90
16158;DHT22;8184;60.256;18.694;2023-08-30T03:42:48;15.00;99.90
16158;DHT22;8184;60.256;18.694;2023-08-30T03:45:17;15.00;99.90
16158;DHT22;8184;60.256;18.694;2023-08-30T03:47:45;15.00;99.90
16158;DHT22;8184;60.256;18.694;2023-08-30T03:50:13;15.00;99.90
16158;DHT22;8184;60.256;18.694;2023-08-30T03:52:41;14.90;99.90
16158;DHT22;8184;60.256;18.694;2023-08-30T03:55:10;14.90;99.90
16158;DHT22;8184;60.256;18.694;2023-08-30T03:57:39;14.90;99.90
16158;DHT22;8184;60.256;18.694;2023-08-30T04:00:08;14.90;99.90
16158;DHT22;8184;60.256;18.694;2023-08-30T04:02:37;14.90;99.90
16158;DHT22;8184;60.256;18.694;2023-08-30T04:05:06;14.90;99.90
16158;DHT22;8184;60.256;18.694;2023-08-30T04:07:36;14.90;99.90
16158;DHT22;8184;60.256;18.694;2023-08-30T04:10:07;14.90;99.90
16158;DHT22;8184;60.256;18.694;2023-08-30T04:12:35;14.90;99.90
16158;DHT22;8184;60.256;18.694;2023-08-30T04:15:05;14.80;99.90
16158;DHT22;8184;60.256;18.694;2023-08-30T04:17:33;14.90;99.90
16158;DHT22;8184;60.256;18.694;2023-08-30T04:20:05;14.90;99.90
16158;DHT22;8184;60.256;18.694;2023-08-30T04:22:34;14.90;99.90
16158;DHT22;8184;60.256;18.694;2023-08-30T04:25:03;14.90;99.90
16158;DHT22;8184;60.256;18.694;2023-08-30T04:27:33;14.90;99.90
16158;DHT22;8184;60.256;18.694;2023-08-30T04:30:02;14.90;99.90
16158;DHT22;8184;60.256;18.694;2023-08-30T04:32:31;14.90;99.90
16158;DHT22;8184;60.256;18.694;2023-08-30T04:34:59;14.90;99.90
16158;DHT22;8184;60.256;18.694;2023-08-30T04:37:29;14.90;99.90
16158;DHT22;8184;60.256;18.694;2023-08-30T04:39:58;14.90;99.90
16158;DHT22;8184;60.256;18.694;2023-08-30T04:42:26;14.90;99.90
16158;DHT22;8184;60.256;18.694;2023-08-30T04:45:00;14.80;99.90
16158;DHT22;8184;60.256;18.694;2023-08-30T04:47:29;14.80;99.90
16158;DHT22;8184;60.256;18.694;2023-08-30T04:49:59;14.80;99.90
16158;DHT22;8184;60.256;18.694;2023-08-30T04:52:27;14.80;99.90
16158;DHT22;8184;60.256;18.694;2023-08-30T04:54:56;14.80;99.90
16158;DHT22;8184;60.256;18.694;2023-08-30T04:57:24;14.70;99.90
16158;DHT22;8184;60.256;18.694;2023-08-30T04:59:54;14.80;99.90
16158;DHT22;8184;60.256;18.694;2023-08-30T05:02:24;14.80;99.90
16158;DHT22;8184;60.256;18.694;2023-08-30T05:04:53;14.80;99.90
16158;DHT22;8184;60.256;18.694;2023-08-30T05:07:24;14.80;99.90
16158;DHT22;8184;60.256;18.694;2023-08-30T05:09:52;14.80;99.90
16158;DHT22;8184;60.256;18.694;2023-08-30T05:12:21;14.80;99.90
16158;DHT22;8184;60.256;18.694;2023-08-30T05:14:49;14.80;99.90
16158;DHT22;8184;60.256;18.694;2023-08-30T05:17:19;14.90;99.90
16158;DHT22;8184;60.256;18.694;2023-08-30T05:19:48;14.90;99.90
16158;DHT22;8184;60.256;18.694;2023-08-30T05:22:16;14.80;99.90
16158;DHT22;8184;60.256;18.694;2023-08-30T05:24:45;14.90;99.90
16158;DHT22;8184;60.256;18.694;2023-08-30T05:27:13;14.90;99.90
16158;DHT22;8184;60.256;18.694;2023-08-30T05:29:44;14.90;99.90
16158;DHT22;8184;60.256;18.694;2023-08-30T05:32:12;14.90;99.90
16158;DHT22;8184;60.256;18.694;2023-08-30T05:34:40;14.90;99.90
16158;DHT22;8184;60.256;18.694;2023-08-30T05:37:08;14.90;99.90
16158;DHT22;8184;60.256;18.694;2023-08-30T05:39:36;14.90;99.90
16158;DHT22;8184;60.256;18.694;2023-08-30T05:42:06;15.00;99.90
16158;DHT22;8184;60.256;18.694;2023-08-30T05:44:37;15.00;99.90
16158;DHT22;8184;60.256;18.694;2023-08-30T05:47:05;15.00;99.90
16158;DHT22;8184;60.256;18.694;2023-08-30T05:49:33;15.00;99.90
16158;DHT22;8184;60.256;18.694;2023-08-30T05:52:01;15.00;99.90
16158;DHT22;8184;60.256;18.694;2023-08-30T05:54:29;15.00;99.90
16158;DHT22;8184;60.256;18.694;2023-08-30T05:56:58;15.00;99.90
16158;DHT22;8184;60.256;18.694;2023-08-30T05:59:29;15.00;99.90
16158;DHT22;8184;60.256;18.694;2023-08-30T06:01:57;14.90;99.90
16158;DHT22;8184;60.256;18.694;2023-08-30T06:04:28;14.90;99.90
16158;DHT22;8184;60.256;18.694;2023-08-30T06:06:56;15.00;99.90
16158;DHT22;8184;60.256;18.694;2023-08-30T06:09:24;14.90;99.90
16158;DHT22;8184;60.256;18.694;2023-08-30T06:11:54;14.90;99.90
16158;DHT22;8184;60.256;18.694;2023-08-30T06:14:22;14.90;99.90
16158;DHT22;8184;60.256;18.694;2023-08-30T06:16:51;15.00;99.90
16158;DHT22;8184;60.256;18.694;2023-08-30T06:19:20;14.90;99.90
16158;DHT22;8184;60.256;18.694;2023-08-30T06:21:54;15.00;99.90
16158;DHT22;8184;60.256;18.694;2023-08-30T06:24:22;15.00;99.90
16158;DHT22;8184;60.256;18.694;2023-08-30T06:26:50;15.00;99.90
16158;DHT22;8184;60.256;18.694;2023-08-30T06:29:20;15.10;99.90
16158;DHT22;8184;60.256;18.694;2023-08-30T06:31:48;15.20;99.90
16158;DHT22;8184;60.256;18.694;2023-08-30T06:34:19;15.20;99.90
16158;DHT22;8184;60.256;18.694;2023-08-30T06:36:48;15.10;99.90
16158;DHT22;8184;60.256;18.694;2023-08-30T06:39:16;15.10;99.90
16158;DHT22;8184;60.256;18.694;2023-08-30T06:41:45;15.10;99.90
16158;DHT22;8184;60.256;18.694;2023-08-30T06:44:13;15.10;99.90
16158;DHT22;8184;60.256;18.694;2023-08-30T06:46:42;15.10;99.90
16158;DHT22;8184;60.256;18.694;2023-08-30T06:49:11;15.10;99.90
16158;DHT22;8184;60.256;18.694;2023-08-30T06:51:40;15.20;99.90
16158;DHT22;8184;60.256;18.694;2023-08-30T06:54:08;15.30;99.90
16158;DHT22;8184;60.256;18.694;2023-08-30T06:56:36;15.40;99.90
16158;DHT22;8184;60.256;18.694;2023-08-30T06:59:05;15.40;99.90
16158;DHT22;8184;60.256;18.694;2023-08-30T07:01:33;15.40;99.90
16158;DHT22;8184;60.256;18.694;2023-08-30T07:04:02;15.50;99.90
16158;DHT22;8184;60.256;18.694;2023-08-30T07:06:31;15.60;99.90
16158;DHT22;8184;60.256;18.694;2023-08-30T07:09:00;15.60;99.90
16158;DHT22;8184;60.256;18.694;2023-08-30T07:11:30;15.70;99.90
16158;DHT22;8184;60.256;18.694;2023-08-30T07:14:02;15.60;99.90
16158;DHT22;8184;60.256;18.694;2023-08-30T07:16:31;15.60;99.90
16158;DHT22;8184;60.256;18.694;2023-08-30T07:18:59;15.50;99.90
16158;DHT22;8184;60.256;18.694;2023-08-30T07:21:29;15.40;99.90
16158;DHT22;8184;60.256;18.694;2023-08-30T07:23:57;15.30;99.90
16158;DHT22;8184;60.256;18.694;2023-08-30T07:26:26;15.30;99.90
16158;DHT22;8184;60.256;18.694;2023-08-30T07:28:54;15.30;99.90
16158;DHT22;8184;60.256;18.694;2023-08-30T07:31:22;15.40;99.90
16158;DHT22;8184;60.256;18.694;2023-08-30T07:33:54;15.30;99.90
16158;DHT22;8184;60.256;18.694;2023-08-30T07:36:24;15.30;99.90
16158;DHT22;8184;60.256;18.694;2023-08-30T07:39:10;15.30;99.90
16158;DHT22;8184;60.256;18.694;2023-08-30T07:41:40;15.30;99.90
16158;DHT22;8184;60.256;18.694;2023-08-30T07:44:08;15.30;99.90
16158;DHT22;8184;60.256;18.694;2023-08-30T07:46:37;15.40;99.90
16158;DHT22;8184;60.256;18.694;2023-08-30T07:49:05;15.40;99.90
16158;DHT22;8184;60.256;18.694;2023-08-30T07:51:33;15.30;99.90
16158;DHT22;8184;60.256;18.694;2023-08-30T07:54:03;15.30;99.90
16158;DHT22;8184;60.256;18.694;2023-08-30T07:56:32;15.20;99.90
16158;DHT22;8184;60.256;18.694;2023-08-30T07:59:02;15.20;99.90
16158;DHT22;8184;60.256;18.694;2023-08-30T08:01:30;15.30;99.90
16158;DHT22;8184;60.256;18.694;2023-08-30T08:03:58;15.40;99.90
16158;DHT22;8184;60.256;18.694;2023-08-30T08:06:33;15.40;99.90
16158;DHT22;8184;60.256;18.694;2023-08-30T08:09:04;15.40;99.90
16158;DHT22;8184;60.256;18.694;2023-08-30T08:11:32;15.30;99.90
16158;DHT22;8184;60.256;18.694;2023-08-30T08:14:02;15.50;99.90
16158;DHT22;8184;60.256;18.694;2023-08-30T08:16:30;15.40;99.90
16158;DHT22;8184;60.256;18.694;2023-08-30T08:19:06;15.30;99.90
16158;DHT22;8184;60.256;18.694;2023-08-30T08:21:37;15.30;99.90
16158;DHT22;8184;60.256;18.694;2023-08-30T08:24:05;15.40;99.90
16158;DHT22;8184;60.256;18.694;2023-08-30T08:26:33;15.40;99.90
16158;DHT22;8184;60.256;18.694;2023-08-30T08:29:03;15.40;99.90
16158;DHT22;8184;60.256;18.694;2023-08-30T08:31:31;15.50;99.90
16158;DHT22;8184;60.256;18.694;2023-08-30T08:34:06;15.70;99.90
16158;DHT22;8184;60.256;18.694;2023-08-30T08:36:36;15.80;99.90
16158;DHT22;8184;60.256;18.694;2023-08-30T08:39:04;15.90;99.90
16158;DHT22;8184;60.256;18.694;2023-08-30T08:41:35;15.90;99.90
16158;DHT22;8184;60.256;18.694;2023-08-30T08:44:06;16.10;99.90
16158;DHT22;8184;60.256;18.694;2023-08-30T08:46:35;16.00;99.90
16158;DHT22;8184;60.256;18.694;2023-08-30T08:49:08;16.20;99.90
16158;DHT22;8184;60.256;18.694;2023-08-30T08:51:37;16.50;99.90
16158;DHT22;8184;60.256;18.694;2023-08-30T08:54:05;16.50;99.90
16158;DHT22;8184;60.256;18.694;2023-08-30T08:56:36;16.60;99.90
16158;DHT22;8184;60.256;18.694;2023-08-30T08:59:08;16.70;99.90
16158;DHT22;8184;60.256;18.694;2023-08-30T09:01:36;16.80;99.90
16158;DHT22;8184;60.256;18.694;2023-08-30T09:04:07;16.90;99.90
16158;DHT22;8184;60.256;18.694;2023-08-30T09:06:35;16.60;99.90
16158;DHT22;8184;60.256;18.694;2023-08-30T09:09:04;16.90;99.90
16158;DHT22;8184;60.256;18.694;2023-08-30T09:11:33;17.00;99.90
16158;DHT22;8184;60.256;18.694;2023-08-30T09:14:18;17.00;99.90
16158;DHT22;8184;60.256;18.694;2023-08-30T09:16:53;17.00;99.90
16158;DHT22;8184;60.256;18.694;2023-08-30T09:19:22;17.00;99.90
16158;DHT22;8184;60.256;18.694;2023-08-30T09:21:50;17.00;99.90
16158;DHT22;8184;60.256;18.694;2023-08-30T09:24:18;17.20;99.90
16158;DHT22;8184;60.256;18.694;2023-08-30T09:26:47;17.30;99.90
16158;DHT22;8184;60.256;18.694;2023-08-30T09:29:19;17.00;99.90
16158;DHT22;8184;60.256;18.694;2023-08-30T09:31:52;17.10;99.90
16158;DHT22;8184;60.256;18.694;2023-08-30T09:34:22;17.30;99.90
16158;DHT22;8184;60.256;18.694;2023-08-30T09:36:50;17.10;99.90
16158;DHT22;8184;60.256;18.694;2023-08-30T09:39:18;16.90;99.90
16158;DHT22;8184;60.256;18.694;2023-08-30T09:41:47;17.00;99.90
16158;DHT22;8184;60.256;18.694;2023-08-30T09:44:16;17.10;99.90
16158;DHT22;8184;60.256;18.694;2023-08-30T09:46:46;17.10;99.90
16158;DHT22;8184;60.256;18.694;2023-08-30T09:49:19;17.00;99.90
16158;DHT22;8184;60.256;18.694;2023-08-30T09:51:50;17.10;99.90
16158;DHT22;8184;60.256;18.694;2023-08-30T09:54:24;17.20;99.90
16158;DHT22;8184;60.256;18.694;2023-08-30T09:56:59;17.30;99.90
16158;DHT22;8184;60.256;18.694;2023-08-30T09:59:28;17.20;99.90
16158;DHT22;8184;60.256;18.694;2023-08-30T10:01:58;17.30;99.90
16158;DHT22;8184;60.256;18.694;2023-08-30T10:04:27;17.40;99.90
16158;DHT22;8184;60.256;18.694;2023-08-30T10:06:56;17.40;99.90
16158;DHT22;8184;60.256;18.694;2023-08-30T10:09:25;17.30;99.90
16158;DHT22;8184;60.256;18.694;2023-08-30T10:11:56;17.30;99.90
16158;DHT22;8184;60.256;18.694;2023-08-30T10:14:25;17.30;99.90
16158;DHT22;8184;60.256;18.694;2023-08-30T10:16:55;17.20;99.90
16158;DHT22;8184;60.256;18.694;2023-08-30T10:19:29;17.50;99.90
16158;DHT22;8184;60.256;18.694;2023-08-30T10:22:00;17.70;99.90
16158;DHT22;8184;60.256;18.694;2023-08-30T10:24:35;17.60;99.90
16158;DHT22;8184;60.256;18.694;2023-08-30T10:27:24;17.60;99.90
16158;DHT22;8184;60.256;18.694;2023-08-30T10:29:52;17.70;99.90
16158;DHT22;8184;60.256;18.694;2023-08-30T10:32:21;17.70;99.90
16158;DHT22;8184;60.256;18.694;2023-08-30T10:34:53;17.70;99.90
16158;DHT22;8184;60.256;18.694;2023-08-30T10:37:22;17.50;99.90
16158;DHT22;8184;60.256;18.694;2023-08-30T10:39:50;17.40;99.90
16158;DHT22;8184;60.256;18.694;2023-08-30T10:42:21;17.70;99.90
16158;DHT22;8184;60.256;18.694;2023-08-30T10:44:56;18.10;99.90
16158;DHT22;8184;60.256;18.694;2023-08-30T10:47:40;18.50;99.90
16158;DHT22;8184;60.256;18.694;2023-08-30T10:50:11;18.90;99.90
16158;DHT22;8184;60.256;18.694;2023-08-30T10:52:40;18.80;99.90
16158;DHT22;8184;60.256;18.694;2023-08-30T10:55:08;19.20;99.90
16158;DHT22;8184;60.256;18.694;2023-08-30T10:57:37;19.20;99.90
16158;DHT22;8184;60.256;18.694;2023-08-30T11:00:09;19.10;99.90
16158;DHT22;8184;60.256;18.694;2023-08-30T11:02:38;18.50;99.90
16158;DHT22;8184;60.256;18.694;2023-08-30T11:05:06;18.00;99.90
16158;DHT22;8184;60.256;18.694;2023-08-30T11:07:36;18.60;99.90
16158;DHT22;8184;60.256;18.694;2023-08-30T11:10:07;18.30;99.90
16158;DHT22;8184;60.256;18.694;2023-08-30T11:12:35;17.90;99.90
16158;DHT22;8184;60.256;18.694;2023-08-30T11:15:04;17.80;99.90
16158;DHT22;8184;60.256;18.694;2023-08-30T11:17:32;17.80;99.90
16158;DHT22;8184;60.256;18.694;2023-08-30T11:20:05;17.70;99.90
16158;DHT22;8184;60.256;18.694;2023-08-30T11:22:37;17.40;99.90
16158;DHT22;8184;60.256;18.694;2023-08-30T11:25:07;17.70;99.90
16158;DHT22;8184;60.256;18.694;2023-08-30T11:27:35;17.70;99.90
16158;DHT22;8184;60.256;18.694;2023-08-30T11:30:04;17.50;99.90
16158;DHT22;8184;60.256;18.694;2023-08-30T11:32:32;17.50;99.90
16158;DHT22;8184;60.256;18.694;2023-08-30T11:35:00;17.50;99.90
16158;DHT22;8184;60.256;18.694;2023-08-30T11:37:29;17.50;99.90
16158;DHT22;8184;60.256;18.694;2023-08-30T11:39:58;17.60;99.90
16158;DHT22;8184;60.256;18.694;2023-08-30T11:42:27;17.30;99.90
16158;DHT22;8184;60.256;18.694;2023-08-30T11:44:55;17.50;99.90
16158;DHT22;8184;60.256;18.694;2023-08-30T11:47:23;17.40;99.90
16158;DHT22;8184;60.256;18.694;2023-08-30T11:49:52;17.30;99.90
16158;DHT22;8184;60.256;18.694;2023-08-30T11:52:20;17.40;99.90
16158;DHT22;8184;60.256;18.694;2023-08-30T11:54:50;18.00;99.90
16158;DHT22;8184;60.256;18.694;2023-08-30T11:57:20;18.20;99.90
16158;DHT22;8184;60.256;18.694;2023-08-30T11:59:48;17.90;99.90
16158;DHT22;8184;60.256;18.694;2023-08-30T12:02:17;18.40;99.90
16158;DHT22;8184;60.256;18.694;2023-08-30T12:04:46;18.10;99.90
16158;DHT22;8184;60.256;18.694;2023-08-30T12:07:21;18.10;99.90
16158;DHT22;8184;60.256;18.694;2023-08-30T12:09:50;17.50;99.90
16158;DHT22;8184;60.256;18.694;2023-08-30T12:12:19;17.70;99.90
16158;DHT22;8184;60.256;18.694;2023-08-30T12:14:54;18.10;99.90
16158;DHT22;8184;60.256;18.694;2023-08-30T12:17:22;17.80;99.90
16158;DHT22;8184;60.256;18.694;2023-08-30T12:19:57;18.20;99.90
16158;DHT22;8184;60.256;18.694;2023-08-30T12:22:34;17.90;99.90
16158;DHT22;8184;60.256;18.694;2023-08-30T12:25:03;17.80;99.90
16158;DHT22;8184;60.256;18.694;2023-08-30T12:27:32;17.80;99.90
16158;DHT22;8184;60.256;18.694;2023-08-30T12:30:01;17.70;99.90
16158;DHT22;8184;60.256;18.694;2023-08-30T12:32:30;17.50;99.90
16158;DHT22;8184;60.256;18.694;2023-08-30T12:34:58;17.50;99.90
16158;DHT22;8184;60.256;18.694;2023-08-30T12:37:29;17.60;99.90
16158;DHT22;8184;60.256;18.694;2023-08-30T12:39:57;17.50;99.90
16158;DHT22;8184;60.256;18.694;2023-08-30T12:42:25;17.40;99.90
16158;DHT22;8184;60.256;18.694;2023-08-30T12:44:55;17.30;99.90
16158;DHT22;8184;60.256;18.694;2023-08-30T12:47:23;17.20;99.90
16158;DHT22;8184;60.256;18.694;2023-08-30T12:49:55;17.10;99.90
16158;DHT22;8184;60.256;18.694;2023-08-30T12:52:23;17.30;99.90
16158;DHT22;8184;60.256;18.694;2023-08-30T12:54:51;17.50;99.90
16158;DHT22;8184;60.256;18.694;2023-08-30T12:57:20;17.60;99.90
16158;DHT22;8184;60.256;18.694;2023-08-30T12:59:50;17.60;99.90
16158;DHT22;8184;60.256;18.694;2023-08-30T13:02:19;17.60;99.90
16158;DHT22;8184;60.256;18.694;2023-08-30T13:04:48;17.80;99.90
16158;DHT22;8184;60.256;18.694;2023-08-30T13:07:16;17.70;99.90
16158;DHT22;8184;60.256;18.694;2023-08-30T13:09:44;17.60;99.90
16158;DHT22;8184;60.256;18.694;2023-08-30T13:12:12;17.70;99.90
16158;DHT22;8184;60.256;18.694;2023-08-30T13:14:40;17.30;99.90
16158;DHT22;8184;60.256;18.694;2023-08-30T13:17:08;17.50;99.90
16158;DHT22;8184;60.256;18.694;2023-08-30T13:19:38;17.50;99.90
16158;DHT22;8184;60.256;18.694;2023-08-30T13:22:08;17.40;99.90
16158;DHT22;8184;60.256;18.694;2023-08-30T13:24:37;17.50;99.90
16158;DHT22;8184;60.256;18.694;2023-08-30T13:27:05;17.50;99.90
16158;DHT22;8184;60.256;18.694;2023-08-30T13:29:34;17.80;99.90
16158;DHT22;8184;60.256;18.694;2023-08-30T13:32:03;17.70;99.90
16158;DHT22;8184;60.256;18.694;2023-08-30T13:34:32;17.70;99.90
16158;DHT22;8184;60.256;18.694;2023-08-30T13:37:01;17.90;99.90
16158;DHT22;8184;60.256;18.694;2023-08-30T13:39:30;17.80;99.90
16158;DHT22;8184;60.256;18.694;2023-08-30T13:41:58;17.90;99.90
16158;DHT22;8184;60.256;18.694;2023-08-30T13:44:26;18.10;99.90
16158;DHT22;8184;60.256;18.694;2023-08-30T13:46:54;17.70;99.90
16158;DHT22;8184;60.256;18.694;2023-08-30T13:49:22;17.90;99.90
16158;DHT22;8184;60.256;18.694;2023-08-30T13:51:52;18.10;99.90
16158;DHT22;8184;60.256;18.694;2023-08-30T13:54:22;17.70;99.90
16158;DHT22;8184;60.256;18.694;2023-08-30T13:56:50;17.90;99.90
16158;DHT22;8184;60.256;18.694;2023-08-30T13:59:18;17.90;99.90
16158;DHT22;8184;60.256;18.694;2023-08-30T14:01:46;17.60;99.90
16158;DHT22;8184;60.256;18.694;2023-08-30T14:04:14;17.90;99.90
16158;DHT22;8184;60.256;18.694;2023-08-30T14:06:43;17.70;99.90
16158;DHT22;8184;60.256;18.694;2023-08-30T14:09:11;17.70;99.90
16158;DHT22;8184;60.256;18.694;2023-08-30T14:11:41;17.70;99.90
16158;DHT22;8184;60.256;18.694;2023-08-30T14:14:10;17.70;99.90
16158;DHT22;8184;60.256;18.694;2023-08-30T14:16:38;17.60;99.90
16158;DHT22;8184;60.256;18.694;2023-08-30T14:19:06;18.00;99.90
16158;DHT22;8184;60.256;18.694;2023-08-30T14:21:34;18.10;99.90
16158;DHT22;8184;60.256;18.694;2023-08-30T14:24:02;17.80;99.90
16158;DHT22;8184;60.256;18.694;2023-08-30T14:26:30;17.70;99.90
16158;DHT22;8184;60.256;18.694;2023-08-30T14:29:00;18.00;99.90
16158;DHT22;8184;60.256;18.694;2023-08-30T14:31:28;17.60;99.90
16158;DHT22;8184;60.256;18.694;2023-08-30T14:33:57;17.70;99.90
16158;DHT22;8184;60.256;18.694;2023-08-30T14:36:26;17.60;99.90
16158;DHT22;8184;60.256;18.694;2023-08-30T14:38:54;17.60;99.90
16158;DHT22;8184;60.256;18.694;2023-08-30T14:41:22;17.60;99.90
16158;DHT22;8184;60.256;18.694;2023-08-30T14:43:50;17.40;99.90
16158;DHT22;8184;60.256;18.694;2023-08-30T14:46:20;17.50;99.90
16158;DHT22;8184;60.256;18.694;2023-08-30T14:48:50;17.50;99.90
16158;DHT22;8184;60.256;18.694;2023-08-30T14:51:18;17.40;99.90
16158;DHT22;8184;60.256;18.694;2023-08-30T14:53:46;17.50;99.90
16158;DHT22;8184;60.256;18.694;2023-08-30T14:56:15;17.40;99.90
16158;DHT22;8184;60.256;18.694;2023-08-30T14:58:46;17.60;99.90
16158;DHT22;8184;60.256;18.694;2023-08-30T15:01:16;17.60;99.90
16158;DHT22;8184;60.256;18.694;2023-08-30T15:03:46;17.90;99.90
16158;DHT22;8184;60.256;18.694;2023-08-30T15:06:15;18.30;99.90
16158;DHT22;8184;60.256;18.694;2023-08-30T15:08:43;18.20;99.90
16158;DHT22;8184;60.256;18.694;2023-08-30T15:11:11;18.10;99.90
16158;DHT22;8184;60.256;18.694;2023-08-30T15:13:39;17.80;99.90
16158;DHT22;8184;60.256;18.694;2023-08-30T15:16:07;17.60;99.90
16158;DHT22;8184;60.256;18.694;2023-08-30T15:18:35;17.20;99.90
16158;DHT22;8184;60.256;18.694;2023-08-30T15:21:05;17.30;99.90
16158;DHT22;8184;60.256;18.694;2023-08-30T15:23:33;17.40;99.90
16158;DHT22;8184;60.256;18.694;2023-08-30T15:26:06;17.50;99.90
16158;DHT22;8184;60.256;18.694;2023-08-30T15:28:34;17.60;99.90
16158;DHT22;8184;60.256;18.694;2023-08-30T15:31:02;17.40;99.90
16158;DHT22;8184;60.256;18.694;2023-08-30T15:33:33;17.40;99.90
16158;DHT22;8184;60.256;18.694;2023-08-30T15:36:02;17.50;99.90
16158;DHT22;8184;60.256;18.694;2023-08-30T15:38:31;17.40;99.90
16158;DHT22;8184;60.256;18.694;2023-08-30T15:41:00;17.50;99.90
16158;DHT22;8184;60.256;18.694;2023-08-30T15:43:29;17.20;99.90